Time;durP1;ratioP1;P1;durP2;ratioP2;P2;SDS_P1;SDS_P2;PMS_P1;PMS_P2;Temp;Humidity;BMP_temperature;BMP_pressure;BME280_temperature;BME280_humidity;BME280_pressure;Samples;Min_cycle;Max_cycle;Signal;HPM_P1;HPM_P2
2021/12/01 00:01:10;;;;;;;3.42;1.73;;;-3.60;99.90;;;;;;4946111;28;20062;-78
2021/12/01 00:03:40;;;;;;;3.70;1.40;;;-3.60;99.90;;;;;;4946419;28;20058;-79
2021/12/01 00:06:10;;;;;;;5.13;1.65;;;-3.20;99.90;;;;;;4945349;28;20087;-79
2021/12/01 00:08:38;;;;;;;2.88;1.77;;;-3.80;99.90;;;;;;4951478;28;20059;-81
2021/12/01 00:11:05;;;;;;;4.07;1.73;;;-3.60;99.90;;;;;;4950060;28;20526;-81
2021/12/01 00:13:36;;;;;;;2.70;1.73;;;-3.70;99.90;;;;;;4946479;28;20050;-80
2021/12/01 00:16:07;;;;;;;3.28;2.10;;;-2.80;99.90;;;;;;4948534;28;20052;-82
2021/12/01 00:18:40;;;;;;;1.27;1.17;;;-3.80;99.90;;;;;;4960992;28;20057;-82
2021/12/01 00:21:07;;;;;;;2.63;1.35;;;-3.30;99.90;;;;;;4948513;29;20503;-81
2021/12/01 00:23:36;;;;;;;4.97;1.38;;;-3.70;99.90;;;;;;4948351;28;20086;-82
2021/12/01 00:26:04;;;;;;;3.22;2.50;;;-2.30;99.90;;;;;;4949359;28;20051;-81
2021/12/01 00:28:32;;;;;;;2.63;1.67;;;-3.50;99.90;;;;;;4936974;28;20055;-81
2021/12/01 00:31:01;;;;;;;2.85;1.48;;;-2.90;99.90;;;;;;4943082;28;20484;-80
2021/12/01 00:33:28;;;;;;;2.08;1.30;;;-2.80;99.90;;;;;;4942745;28;20058;-80
2021/12/01 00:35:58;;;;;;;2.60;1.42;;;-3.00;99.90;;;;;;4950187;28;20499;-80
2021/12/01 00:38:31;;;;;;;4.25;1.70;;;-3.60;99.90;;;;;;4947595;29;20062;-81
2021/12/01 00:41:02;;;;;;;3.53;1.65;;;-2.90;99.90;;;;;;4942825;28;20161;-81
2021/12/01 00:43:30;;;;;;;2.17;1.40;;;-2.80;99.90;;;;;;4945414;28;20055;-81
2021/12/01 00:46:09;;;;;;;3.15;1.50;;;-2.80;99.90;;;;;;4942515;28;20066;-81
2021/12/01 00:48:37;;;;;;;2.70;1.60;;;-3.50;99.90;;;;;;4943173;28;20518;-81
2021/12/01 00:51:05;;;;;;;1.95;1.60;;;-2.30;99.90;;;;;;4949862;28;20412;-81
2021/12/01 00:53:33;;;;;;;1.98;1.50;;;-2.30;99.90;;;;;;4950939;28;20452;-80
2021/12/01 00:56:01;;;;;;;5.68;1.90;;;-3.70;99.90;;;;;;4947441;28;20063;-81
2021/12/01 00:58:28;;;;;;;3.03;2.08;;;-4.20;99.90;;;;;;4946756;29;20056;-80
2021/12/01 01:00:58;;;;;;;4.47;1.60;;;-3.20;99.90;;;;;;4948825;29;20049;-80
2021/12/01 01:03:26;;;;;;;3.17;1.65;;;-3.60;99.90;;;;;;4956394;28;20058;-80
2021/12/01 01:05:55;;;;;;;3.88;1.60;;;-3.00;99.90;;;;;;4950570;28;20098;-81
2021/12/01 01:08:26;;;;;;;1.83;1.35;;;-3.40;99.90;;;;;;4962479;28;20476;-80
2021/12/01 01:11:09;;;;;;;3.05;1.20;;;-2.20;99.90;;;;;;4955668;28;20055;-80
2021/12/01 01:16:28;;;;;;;1.90;1.38;;;-3.60;99.90;;;;;;4963776;28;20055;-83
2021/12/01 01:19:02;;;;;;;2.88;1.60;;;-3.20;99.90;;;;;;4950044;28;20109;-82
2021/12/01 01:21:34;;;;;;;1.83;1.40;;;-3.30;99.90;;;;;;4955866;28;20515;-82
2021/12/01 01:24:05;;;;;;;3.03;1.90;;;-4.40;99.90;;;;;;4954674;28;20051;-81
2021/12/01 01:26:33;;;;;;;3.13;1.35;;;-3.70;99.90;;;;;;4954169;28;20059;-81
2021/12/01 01:29:01;;;;;;;1.45;1.25;;;-3.40;99.90;;;;;;4968376;28;20051;-82
2021/12/01 01:31:31;;;;;;;2.78;1.20;;;-2.90;99.90;;;;;;4948567;28;20090;-81
2021/12/01 01:34:05;;;;;;;2.33;1.52;;;-2.90;99.90;;;;;;4955214;28;20047;-80
2021/12/01 01:36:33;;;;;;;3.15;1.35;;;-3.40;99.90;;;;;;4954961;28;20051;-81
2021/12/01 01:39:04;;;;;;;1.52;1.20;;;-2.40;99.90;;;;;;4955365;28;20515;-81
2021/12/01 01:41:32;;;;;;;2.50;1.13;;;-2.80;99.90;;;;;;4955554;28;20570;-81
2021/12/01 01:43:59;;;;;;;1.58;1.00;;;-2.90;99.90;;;;;;4953232;28;20082;-83
2021/12/01 01:46:32;;;;;;;1.95;1.00;;;-3.70;99.90;;;;;;4968066;28;20674;-82
2021/12/01 01:49:06;;;;;;;2.50;1.30;;;-3.70;99.90;;;;;;4954976;28;20043;-83
2021/12/01 01:51:34;;;;;;;0.95;0.95;;;-4.00;99.90;;;;;;4947448;29;20062;-81
2021/12/01 01:54:04;;;;;;;4.30;1.33;;;-3.70;99.90;;;;;;4954243;28;20051;-81
2021/12/01 01:56:31;;;;;;;1.48;1.10;;;-3.60;99.90;;;;;;4950411;28;20103;-81
2021/12/01 01:59:03;;;;;;;1.67;1.23;;;-2.00;99.90;;;;;;4947100;28;20058;-81
2021/12/01 02:04:22;;;;;;;1.17;1.08;;;-3.60;99.90;;;;;;4943677;28;20047;-81
2021/12/01 02:06:50;;;;;;;2.40;1.58;;;-3.50;99.90;;;;;;4963198;28;20151;-81
2021/12/01 02:09:23;;;;;;;2.63;1.42;;;-3.60;99.90;;;;;;4953837;28;20098;-81
2021/12/01 02:11:54;;;;;;;1.67;1.33;;;-3.20;99.90;;;;;;4946871;28;20148;-81
2021/12/01 02:14:22;;;;;;;2.70;1.35;;;-2.70;99.90;;;;;;4953114;28;20533;-82
2021/12/01 02:16:51;;;;;;;5.80;1.50;;;-3.50;99.90;;;;;;4951382;29;20508;-82
2021/12/01 02:19:19;;;;;;;2.28;1.50;;;-2.10;99.90;;;;;;4936247;29;20055;-81
2021/12/01 02:21:48;;;;;;;1.67;1.42;;;-2.50;99.90;;;;;;4953482;28;20058;-81
2021/12/01 02:24:17;;;;;;;1.73;1.00;;;-3.40;99.90;;;;;;4951999;28;20146;-81
2021/12/01 02:26:49;;;;;;;2.75;1.35;;;-1.80;99.90;;;;;;4947480;28;20831;-81
2021/12/01 02:29:21;;;;;;;3.28;1.52;;;-3.60;99.90;;;;;;4963821;28;20051;-81
2021/12/01 02:31:50;;;;;;;2.03;1.48;;;-3.30;99.90;;;;;;4963212;28;20058;-81
2021/12/01 02:34:20;;;;;;;2.85;1.40;;;-3.60;99.90;;;;;;4947931;29;20051;-80
2021/12/01 02:36:53;;;;;;;3.03;1.17;;;-3.30;99.90;;;;;;4946792;28;20098;-80
2021/12/01 02:39:20;;;;;;;2.08;1.60;;;-2.70;99.90;;;;;;4943051;28;20516;-80
2021/12/01 02:41:54;;;;;;;2.72;1.85;;;-2.00;99.90;;;;;;4951228;28;20051;-80
2021/12/01 02:44:25;;;;;;;3.28;1.45;;;-2.60;99.90;;;;;;4935502;29;20060;-80
2021/12/01 02:46:53;;;;;;;3.85;1.60;;;-3.40;99.90;;;;;;4954232;28;20043;-80
2021/12/01 02:49:22;;;;;;;1.75;1.33;;;-3.40;99.90;;;;;;4946845;28;20051;-80
2021/12/01 02:51:54;;;;;;;1.65;1.20;;;-2.60;99.90;;;;;;4946337;28;20056;-80
2021/12/01 02:54:22;;;;;;;2.38;1.05;;;-3.20;99.90;;;;;;4949805;28;20076;-80
2021/12/01 02:56:53;;;;;;;1.92;1.48;;;-2.60;99.90;;;;;;4957153;28;20135;-81
2021/12/01 02:59:23;;;;;;;3.35;1.10;;;-3.40;99.90;;;;;;4953405;28;20632;-79
2021/12/01 03:01:51;;;;;;;2.13;1.15;;;-2.20;99.90;;;;;;4940534;28;20055;-79
2021/12/01 03:04:20;;;;;;;3.08;1.67;;;-2.90;99.90;;;;;;4933319;29;20062;-79
2021/12/01 03:06:51;;;;;;;1.48;1.25;;;-2.40;99.90;;;;;;4944319;28;20053;-79
2021/12/01 03:09:19;;;;;;;2.47;1.23;;;-3.40;99.90;;;;;;4947015;28;20479;-79
2021/12/01 03:11:49;;;;;;;1.60;1.50;;;-3.30;99.90;;;;;;4963469;28;20054;-79
2021/12/01 03:14:19;;;;;;;2.60;1.23;;;-2.50;99.90;;;;;;4953050;28;20055;-80
2021/12/01 03:16:49;;;;;;;2.22;1.50;;;-2.50;99.90;;;;;;4946956;28;20162;-80
2021/12/01 03:19:16;;;;;;;3.70;1.63;;;-2.60;99.90;;;;;;4942338;28;20527;-79
2021/12/01 03:21:45;;;;;;;1.73;1.60;;;-3.40;99.90;;;;;;4944780;29;20054;-80
2021/12/01 03:24:15;;;;;;;2.30;1.40;;;-1.80;99.90;;;;;;4949793;28;20151;-79
2021/12/01 03:26:42;;;;;;;4.55;1.52;;;-3.50;99.90;;;;;;4946408;29;20047;-79
2021/12/01 03:29:14;;;;;;;6.80;1.60;;;-3.40;99.90;;;;;;4952682;28;20051;-81
2021/12/01 03:31:42;;;;;;;3.60;1.30;;;-3.20;99.90;;;;;;4944656;29;20055;-81
2021/12/01 03:34:11;;;;;;;3.30;1.35;;;-2.30;99.90;;;;;;4949273;28;20043;-81
2021/12/01 03:36:39;;;;;;;2.38;1.38;;;-3.60;99.90;;;;;;4946515;28;20074;-81
2021/12/01 03:39:07;;;;;;;5.57;1.55;;;-3.60;99.90;;;;;;4948442;28;20118;-80
2021/12/01 03:41:36;;;;;;;1.70;1.17;;;-2.80;99.90;;;;;;4933639;29;20129;-81
2021/12/01 03:44:05;;;;;;;3.72;1.73;;;-3.20;99.90;;;;;;4946640;29;20066;-80
2021/12/01 03:46:33;;;;;;;2.30;1.40;;;-3.60;99.90;;;;;;4949373;28;20051;-80
2021/12/01 03:49:00;;;;;;;3.75;1.40;;;-3.50;99.90;;;;;;4945967;29;20150;-82
2021/12/01 03:51:28;;;;;;;3.45;1.60;;;-2.60;99.90;;;;;;4952998;28;20141;-82
2021/12/01 03:53:56;;;;;;;3.55;1.45;;;-2.90;99.90;;;;;;4952397;28;20066;-80
2021/12/01 03:56:24;;;;;;;2.58;1.80;;;-3.70;99.90;;;;;;4949998;29;20555;-80
2021/12/01 03:58:54;;;;;;;1.58;1.38;;;-3.20;99.90;;;;;;4933889;29;20048;-80
2021/12/01 04:01:22;;;;;;;3.35;1.98;;;-3.60;99.90;;;;;;4944107;28;20043;-81
2021/12/01 04:03:49;;;;;;;7.05;1.50;;;-3.40;99.90;;;;;;4940470;28;20059;-79
2021/12/01 04:06:17;;;;;;;3.90;1.45;;;-3.60;99.90;;;;;;4962969;28;20054;-81
2021/12/01 04:08:45;;;;;;;2.55;1.45;;;-3.60;99.90;;;;;;4941016;28;20043;-80
2021/12/01 04:11:12;;;;;;;4.35;2.10;;;-3.60;99.90;;;;;;4951261;28;20062;-81
2021/12/01 04:13:40;;;;;;;2.53;1.25;;;-3.30;99.90;;;;;;4950954;28;20133;-81
2021/12/01 04:16:10;;;;;;;1.38;1.10;;;-3.20;99.90;;;;;;4946362;28;20053;-82
2021/12/01 04:18:39;;;;;;;7.13;2.13;;;-3.40;99.90;;;;;;4951008;28;20102;-82
2021/12/01 04:21:08;;;;;;;2.88;1.80;;;-1.70;99.90;;;;;;4947213;28;20058;-79
2021/12/01 04:23:36;;;;;;;3.70;1.55;;;-3.40;99.90;;;;;;4961991;28;20056;-80
2021/12/01 04:26:04;;;;;;;4.60;1.60;;;-3.40;99.90;;;;;;4950646;29;20534;-80
2021/12/01 04:28:32;;;;;;;2.38;1.10;;;-3.50;99.90;;;;;;4947039;28;20071;-80
2021/12/01 04:31:00;;;;;;;1.60;1.27;;;-1.90;99.90;;;;;;4951976;28;20061;-80
2021/12/01 04:33:29;;;;;;;3.85;1.52;;;-3.60;99.90;;;;;;4950673;28;20050;-81
2021/12/01 04:35:56;;;;;;;1.88;1.42;;;-3.40;99.90;;;;;;4966923;28;20058;-82
2021/12/01 04:38:24;;;;;;;2.50;2.17;;;-3.50;99.90;;;;;;4947189;28;20629;-81
2021/12/01 04:40:52;;;;;;;4.32;1.67;;;-2.90;99.90;;;;;;4945095;28;20470;-82
2021/12/01 04:43:22;;;;;;;3.90;1.50;;;-2.20;99.90;;;;;;4943434;28;20527;-81
2021/12/01 04:45:58;;;;;;;1.60;1.13;;;-2.00;99.90;;;;;;4939737;29;20054;-82
2021/12/01 04:48:28;;;;;;;3.05;1.10;;;-3.40;99.90;;;;;;4942439;29;20420;-82
2021/12/01 04:50:56;;;;;;;1.42;1.08;;;-3.60;99.90;;;;;;4944967;28;20058;-83
2021/12/01 04:53:25;;;;;;;1.27;1.17;;;-3.40;99.90;;;;;;4945267;28;20427;-81
2021/12/01 04:55:53;;;;;;;1.20;0.90;;;-2.70;99.90;;;;;;4946330;28;20079;-81
2021/12/01 04:58:22;;;;;;;1.40;1.30;;;-3.40;99.90;;;;;;4938901;28;20530;-81
2021/12/01 05:00:59;;;;;;;3.63;1.38;;;-3.50;99.90;;;;;;4949032;28;20056;-83
2021/12/01 05:03:30;;;;;;;8.38;1.50;;;-3.20;99.90;;;;;;4952797;28;20083;-82
2021/12/01 05:05:58;;;;;;;7.72;1.70;;;-3.70;99.90;;;;;;4965637;28;20518;-80
2021/12/01 05:08:25;;;;;;;3.33;1.10;;;-3.00;99.90;;;;;;4941788;28;20047;-81
2021/12/01 05:10:53;;;;;;;1.27;1.13;;;-1.80;99.90;;;;;;4937430;28;20056;-81
2021/12/01 05:13:21;;;;;;;3.30;1.58;;;-2.50;99.90;;;;;;4936273;29;20051;-81
2021/12/01 05:16:15;;;;;;;2.67;1.10;;;-3.30;99.90;;;;;;4942189;29;20055;-89
2021/12/01 05:19:05;;;;;;;4.38;2.38;;;-3.30;99.90;;;;;;4943242;28;20062;-87
2021/12/01 05:22:09;;;;;;;3.72;1.38;;;-3.30;99.90;;;;;;4944439;29;20055;-83
2021/12/01 05:24:37;;;;;;;8.15;2.08;;;-2.80;99.90;;;;;;4952706;28;20137;-85
2021/12/01 05:27:05;;;;;;;3.20;1.48;;;-1.70;99.90;;;;;;4952500;28;20048;-85
2021/12/01 05:29:48;;;;;;;4.72;1.58;;;-3.30;99.90;;;;;;4947922;28;20059;-85
2021/12/01 05:32:26;;;;;;;4.28;2.60;;;-2.20;99.90;;;;;;4957147;28;20170;-84
2021/12/01 05:34:55;;;;;;;3.20;1.67;;;-2.20;99.90;;;;;;4948539;28;20515;-82
2021/12/01 05:37:23;;;;;;;1.63;1.27;;;-2.40;99.90;;;;;;4940392;29;20043;-82
2021/12/01 05:40:12;;;;;;;;;;;;;;;;;;;;;
2021/12/01 05:43:04;;;;;;;2.13;1.48;;;-3.40;99.90;;;;;;4924431;29;20052;-83
2021/12/01 05:45:31;;;;;;;4.20;1.80;;;-2.40;99.90;;;;;;4934497;29;20051;-84
2021/12/01 05:47:59;;;;;;;8.55;1.95;;;-2.20;99.90;;;;;;4938183;29;20047;-83
2021/12/01 05:50:29;;;;;;;2.33;1.60;;;-3.20;99.90;;;;;;4947818;28;20054;-83
2021/12/01 05:52:57;;;;;;;1.60;1.33;;;-3.40;99.90;;;;;;4953841;28;20070;-84
2021/12/01 05:55:26;;;;;;;4.65;1.95;;;-2.30;99.90;;;;;;4945912;28;20055;-82
2021/12/01 05:57:54;;;;;;;7.13;2.10;;;-3.10;99.90;;;;;;4934917;29;20508;-83
2021/12/01 06:00:22;;;;;;;6.22;1.60;;;-2.90;99.90;;;;;;4952584;29;20051;-84
2021/12/01 06:02:51;;;;;;;2.70;1.88;;;-2.80;99.90;;;;;;4955840;28;20075;-84
2021/12/01 06:05:21;;;;;;;2.55;1.65;;;-3.40;99.90;;;;;;4962159;28;20047;-88
2021/12/01 06:07:51;;;;;;;8.00;2.78;;;-2.80;99.90;;;;;;4951637;28;20130;-89
2021/12/01 06:10:19;;;;;;;3.47;1.77;;;-3.40;99.90;;;;;;4952222;28;20047;-76
2021/12/01 06:12:53;;;;;;;3.03;1.60;;;-2.60;99.90;;;;;;4964397;28;20102;-87
2021/12/01 06:15:21;;;;;;;4.13;1.75;;;-2.60;99.90;;;;;;4952058;28;20047;-83
2021/12/01 06:17:49;;;;;;;3.85;2.10;;;-3.30;99.90;;;;;;4953479;28;20070;-84
2021/12/01 06:20:17;;;;;;;8.13;1.60;;;-3.30;99.90;;;;;;4954256;28;20051;-85
2021/12/01 06:22:45;;;;;;;5.35;1.75;;;-3.50;99.90;;;;;;4942977;29;20051;-83
2021/12/01 06:25:14;;;;;;;2.40;1.55;;;-3.40;99.90;;;;;;4950579;29;20054;-84
2021/12/01 06:27:42;;;;;;;5.32;2.08;;;-3.30;99.90;;;;;;4950343;28;20138;-84
2021/12/01 06:30:15;;;;;;;3.63;1.60;;;-3.50;99.90;;;;;;4959991;28;20135;-84
2021/12/01 06:32:43;;;;;;;4.75;1.60;;;-3.50;99.90;;;;;;4950139;28;20051;-83
2021/12/01 06:35:11;;;;;;;8.95;1.90;;;-3.30;99.90;;;;;;4960376;28;20051;-84
2021/12/01 06:37:39;;;;;;;7.25;1.80;;;-3.40;99.90;;;;;;4952507;28;20051;-85
2021/12/01 06:40:09;;;;;;;4.68;1.80;;;-3.20;99.90;;;;;;4953162;28;20057;-83
2021/12/01 06:42:38;;;;;;;6.65;1.90;;;-3.40;99.90;;;;;;4949224;29;20066;-83
2021/12/01 06:45:09;;;;;;;3.80;2.22;;;-3.20;99.90;;;;;;4949793;29;20054;-82
2021/12/01 06:47:37;;;;;;;9.95;2.85;;;-3.10;99.90;;;;;;4949103;28;20062;-83
2021/12/01 06:50:09;;;;;;;3.92;1.85;;;-3.20;99.90;;;;;;4952392;28;20070;-81
2021/12/01 06:52:38;;;;;;;8.85;2.75;;;-3.60;99.90;;;;;;4951018;28;20079;-83
2021/12/01 06:55:11;;;;;;;2.30;1.60;;;-2.30;99.90;;;;;;4950015;29;20522;-81
2021/12/01 06:57:40;;;;;;;2.85;1.65;;;-3.30;99.90;;;;;;4951765;28;20067;-79
2021/12/01 07:00:15;;;;;;;3.55;1.90;;;-3.30;99.90;;;;;;4952251;28;20605;-81
2021/12/01 07:02:43;;;;;;;6.25;1.92;;;-3.30;99.90;;;;;;4941548;29;20142;-82
2021/12/01 07:05:12;;;;;;;5.80;2.53;;;-3.60;99.90;;;;;;4952963;28;20071;-81
2021/12/01 07:07:40;;;;;;;3.63;1.60;;;-3.20;99.90;;;;;;4953363;28;20154;-81
2021/12/01 07:10:11;;;;;;;6.00;2.17;;;-2.10;99.90;;;;;;4952676;28;20051;-82
2021/12/01 07:12:41;;;;;;;1.95;1.60;;;-3.40;99.90;;;;;;4951415;28;20138;-82
2021/12/01 07:15:13;;;;;;;5.03;2.17;;;-3.20;99.90;;;;;;4951621;29;20047;-82
2021/12/01 07:17:41;;;;;;;5.93;2.50;;;-2.20;99.90;;;;;;4949713;28;20401;-81
2021/12/01 07:20:11;;;;;;;3.53;1.88;;;-2.20;99.90;;;;;;4962233;28;20097;-84
2021/12/01 07:22:39;;;;;;;5.32;1.80;;;-2.70;99.90;;;;;;4953625;28;20142;-86
2021/12/01 07:25:08;;;;;;;4.93;1.83;;;-3.50;99.90;;;;;;4958639;28;20141;-87
2021/12/01 07:27:35;;;;;;;2.28;1.70;;;-3.10;99.90;;;;;;4949444;28;20055;-83
2021/12/01 07:30:07;;;;;;;4.47;2.58;;;-2.10;99.90;;;;;;4953045;28;20488;-87
2021/12/01 07:32:35;;;;;;;4.00;2.28;;;-3.40;99.90;;;;;;4951650;28;20057;-82
2021/12/01 07:35:02;;;;;;;5.68;2.13;;;-3.10;99.90;;;;;;4935714;28;20082;-88
2021/12/01 07:37:30;;;;;;;2.25;1.80;;;-3.10;99.90;;;;;;4937942;29;20074;-82
2021/12/01 07:39:58;;;;;;;1.77;1.27;;;-2.20;99.90;;;;;;4953231;28;20051;-86
2021/12/01 07:42:26;;;;;;;3.10;1.73;;;-2.70;99.90;;;;;;4961567;28;20055;-88
2021/12/01 07:44:54;;;;;;;5.07;2.47;;;-2.70;99.90;;;;;;4966251;28;20047;-89
2021/12/01 07:47:23;;;;;;;3.50;2.05;;;-2.40;99.90;;;;;;4952140;28;20113;-89
2021/12/01 07:49:51;;;;;;;3.80;1.80;;;-3.70;99.90;;;;;;4950835;28;20051;-89
2021/12/01 07:52:22;;;;;;;2.42;1.35;;;-3.30;99.90;;;;;;4951517;28;20149;-88
2021/12/01 07:54:50;;;;;;;5.75;2.58;;;-2.50;99.90;;;;;;4953663;28;20392;-89
2021/12/01 07:57:20;;;;;;;2.92;1.67;;;-2.80;99.90;;;;;;4951521;28;20051;-92
2021/12/01 07:59:48;;;;;;;5.07;1.88;;;-2.20;99.90;;;;;;4964504;28;20423;-90
2021/12/01 08:02:16;;;;;;;3.70;1.98;;;-3.00;99.90;;;;;;4944803;28;20041;-89
2021/12/01 08:04:45;;;;;;;3.63;2.05;;;-2.60;99.90;;;;;;4950587;28;20047;-88
2021/12/01 08:07:13;;;;;;;4.72;2.72;;;-2.90;99.90;;;;;;4950306;28;20035;-87
2021/12/01 08:09:41;;;;;;;11.40;2.70;;;-3.10;99.90;;;;;;4967309;28;20051;-89
2021/12/01 08:12:11;;;;;;;5.90;1.45;;;-3.00;99.90;;;;;;4951432;28;20123;-89
2021/12/01 08:14:42;;;;;;;4.28;2.10;;;-2.80;99.90;;;;;;4949590;28;20418;-91
2021/12/01 08:17:10;;;;;;;5.53;1.50;;;-2.80;99.90;;;;;;4960168;28;20101;-91
2021/12/01 08:19:37;;;;;;;7.10;2.00;;;-2.40;99.90;;;;;;4952686;28;20075;-86
2021/12/01 08:22:09;;;;;;;5.47;2.03;;;-1.90;99.90;;;;;;4944408;28;20448;-87
2021/12/01 08:24:37;;;;;;;4.28;1.50;;;-3.10;99.90;;;;;;4949929;29;20151;-86
2021/12/01 08:27:05;;;;;;;4.35;1.95;;;-3.10;99.90;;;;;;4951569;28;20121;-86
2021/12/01 08:29:33;;;;;;;4.43;2.25;;;-3.30;99.90;;;;;;4950998;28;20055;-85
2021/12/01 08:32:01;;;;;;;8.13;1.98;;;-3.20;99.90;;;;;;4950244;28;20408;-84
2021/12/01 08:34:29;;;;;;;4.88;2.25;;;-1.90;99.90;;;;;;4950391;28;20154;-83
2021/12/01 08:36:56;;;;;;;4.00;1.70;;;-2.80;99.90;;;;;;4950516;28;20142;-84
2021/12/01 08:39:25;;;;;;;5.88;1.77;;;-1.90;99.90;;;;;;4952084;28;20085;-85
2021/12/01 08:41:53;;;;;;;2.85;1.35;;;-2.80;99.90;;;;;;4951767;28;20078;-87
2021/12/01 08:44:21;;;;;;;5.68;2.17;;;-2.90;99.90;;;;;;4950376;28;20138;-86
2021/12/01 08:46:49;;;;;;;6.25;2.35;;;-1.40;99.90;;;;;;4949139;28;20134;-87
2021/12/01 08:49:17;;;;;;;5.60;2.45;;;-1.90;99.90;;;;;;4951598;28;20055;-86
2021/12/01 08:51:44;;;;;;;3.33;2.10;;;-1.20;99.90;;;;;;4949568;28;20043;-86
2021/12/01 08:54:13;;;;;;;2.92;2.03;;;-2.90;99.90;;;;;;4950890;28;20070;-87
2021/12/01 08:56:43;;;;;;;5.07;1.95;;;-2.50;99.90;;;;;;4950094;28;20411;-85
2021/12/01 08:59:11;;;;;;;6.80;2.83;;;-2.40;99.90;;;;;;4951039;28;20484;-85
2021/12/01 09:01:39;;;;;;;6.35;2.65;;;-3.00;99.90;;;;;;4966080;28;20423;-85
2021/12/01 09:04:07;;;;;;;3.13;1.80;;;-2.80;99.90;;;;;;4951169;28;20051;-86
2021/12/01 09:06:40;;;;;;;5.30;1.85;;;-2.80;99.90;;;;;;4951006;28;20051;-84
2021/12/01 09:09:18;;;;;;;2.90;1.80;;;-1.40;99.90;;;;;;4948856;28;20059;-87
2021/12/01 09:11:54;;;;;;;4.63;2.53;;;-1.90;99.90;;;;;;4950948;28;20138;-85
2021/12/01 09:14:24;;;;;;;5.35;2.17;;;-2.80;99.90;;;;;;4951289;28;20055;-86
2021/12/01 09:16:55;;;;;;;5.22;1.92;;;-2.60;99.90;;;;;;4952319;28;20055;-83
2021/12/01 09:19:23;;;;;;;8.80;1.95;;;-2.10;99.90;;;;;;4954941;28;20058;-83
2021/12/01 09:21:51;;;;;;;6.00;2.40;;;-2.60;99.90;;;;;;4954663;28;20507;-89
2021/12/01 09:24:21;;;;;;;3.85;2.17;;;-2.90;99.90;;;;;;4954692;28;20055;-87
2021/12/01 09:26:51;;;;;;;6.63;2.00;;;-2.30;99.90;;;;;;4954995;28;20074;-88
2021/12/01 09:29:19;;;;;;;4.85;1.90;;;-1.80;99.90;;;;;;4953307;28;20145;-86
2021/12/01 09:31:48;;;;;;;4.93;2.78;;;-1.80;99.90;;;;;;4953303;28;20468;-87
2021/12/01 09:34:18;;;;;;;8.70;2.20;;;-2.50;99.90;;;;;;4937503;28;20150;-87
2021/12/01 09:36:49;;;;;;;3.92;2.50;;;-2.50;99.90;;;;;;4954557;28;20055;-87
2021/12/01 09:39:20;;;;;;;7.43;3.05;;;-1.40;99.90;;;;;;4952596;28;20053;-87
2021/12/01 09:41:51;;;;;;;3.22;1.83;;;-2.30;99.90;;;;;;4954475;28;20138;-84
2021/12/01 09:44:21;;;;;;;10.38;2.63;;;-2.60;99.90;;;;;;4954053;28;20059;-85
2021/12/01 09:46:49;;;;;;;5.68;2.58;;;-2.40;99.90;;;;;;4953020;28;20047;-85
2021/12/01 09:49:17;;;;;;;6.50;2.63;;;-1.20;99.90;;;;;;4954950;28;20051;-84
2021/12/01 09:51:47;;;;;;;4.13;2.03;;;-2.60;99.90;;;;;;4953923;28;20074;-83
2021/12/01 09:54:18;;;;;;;7.63;3.20;;;-2.80;99.90;;;;;;4938009;29;20051;-83
2021/12/01 09:56:46;;;;;;;6.15;2.67;;;-2.90;99.90;;;;;;4955235;28;20514;-83
2021/12/01 09:59:16;;;;;;;5.40;2.53;;;-2.60;99.90;;;;;;4954437;28;20114;-86
2021/12/01 10:01:44;;;;;;;7.60;2.50;;;-2.60;99.90;;;;;;4951837;28;20055;-83
2021/12/01 10:04:12;;;;;;;9.60;3.30;;;-2.80;99.90;;;;;;4953517;28;20058;-87
2021/12/01 10:06:40;;;;;;;2.97;2.60;;;-2.70;99.90;;;;;;4968347;28;20058;-87
2021/12/01 10:09:09;;;;;;;4.32;1.98;;;-2.70;99.90;;;;;;4952568;28;20051;-86
2021/12/01 10:11:41;;;;;;;4.95;1.90;;;-2.80;99.90;;;;;;4952897;29;20051;-83
2021/12/01 10:14:15;;;;;;;4.97;1.95;;;-1.90;99.90;;;;;;4968333;28;20047;-82
2021/12/01 10:16:46;;;;;;;7.78;1.90;;;-3.00;99.90;;;;;;4954482;28;20055;-80
2021/12/01 10:19:17;;;;;;;6.35;2.15;;;-2.00;99.90;;;;;;4954814;28;20588;-82
2021/12/01 10:21:48;;;;;;;3.33;2.00;;;-2.40;99.90;;;;;;4954596;28;20389;-81
2021/12/01 10:24:19;;;;;;;5.25;2.20;;;-4.20;99.90;;;;;;4953516;28;20145;-83
2021/12/01 10:26:50;;;;;;;6.13;2.63;;;-2.90;99.90;;;;;;4953385;29;20051;-82
2021/12/01 10:29:21;;;;;;;5.78;2.65;;;-1.40;99.90;;;;;;4954149;28;20079;-82
2021/12/01 10:31:53;;;;;;;4.55;2.08;;;-2.60;99.90;;;;;;4954973;28;20074;-84
2021/12/01 10:34:28;;;;;;;5.63;2.30;;;-2.80;99.90;;;;;;4950014;28;20055;-88
2021/12/01 10:37:18;;;;;;;5.15;2.38;;;-2.80;99.90;;;;;;4949956;28;20353;-86
2021/12/01 10:39:50;;;;;;;8.05;3.17;;;-2.70;99.90;;;;;;4936022;29;20055;-90
2021/12/01 10:42:19;;;;;;;6.17;2.57;;;-2.10;99.90;;;;;;4951968;28;20586;-84
2021/12/01 10:44:59;;;;;;;5.93;2.63;;;-1.80;99.90;;;;;;4949668;28;20468;-85
2021/12/01 10:47:38;;;;;;;5.55;2.33;;;-3.00;99.90;;;;;;4952426;28;20047;-84
2021/12/01 10:50:08;;;;;;;9.85;2.83;;;-2.00;99.90;;;;;;4952814;28;20515;-85
2021/12/01 10:52:38;;;;;;;7.15;2.58;;;-2.50;99.90;;;;;;4952518;28;20063;-84
2021/12/01 10:55:10;;;;;;;4.10;3.00;;;-1.60;99.90;;;;;;4952587;29;20065;-83
2021/12/01 10:57:41;;;;;;;5.27;2.10;;;-2.70;99.90;;;;;;4936338;28;20492;-82
2021/12/01 11:00:22;;;;;;;6.70;2.80;;;-2.50;99.90;;;;;;4953203;29;20051;-83
2021/12/01 11:02:52;;;;;;;3.58;2.00;;;-2.90;99.90;;;;;;4954235;28;20051;-85
2021/12/01 11:05:29;;;;;;;5.47;1.80;;;-2.50;99.90;;;;;;4954220;28;20109;-83
2021/12/01 11:07:57;;;;;;;4.80;1.63;;;-2.10;99.90;;;;;;4967955;28;20055;-88
2021/12/01 11:10:26;;;;;;;7.70;2.70;;;-2.50;99.90;;;;;;4954108;28;20075;-87
2021/12/01 11:12:57;;;;;;;5.40;2.13;;;-3.00;99.90;;;;;;4952580;28;20514;-88
2021/12/01 11:15:30;;;;;;;8.40;2.13;;;-2.50;99.90;;;;;;4952303;28;20055;-83
2021/12/01 11:18:01;;;;;;;4.53;1.67;;;-1.90;99.90;;;;;;4953274;28;20055;-87
2021/12/01 11:20:39;;;;;;;6.47;2.33;;;-2.80;99.90;;;;;;4953440;28;20067;-86
2021/12/01 11:23:26;;;;;;;5.78;2.47;;;-3.00;99.90;;;;;;4933338;29;20139;-85
2021/12/01 11:25:57;;;;;;;4.15;2.10;;;-2.50;99.90;;;;;;4936926;29;20052;-85
2021/12/01 11:28:28;;;;;;;6.45;2.58;;;-2.60;99.90;;;;;;4949016;28;20157;-86
2021/12/01 11:30:59;;;;;;;7.80;2.10;;;-2.20;99.90;;;;;;4952938;28;20093;-85
2021/12/01 11:33:30;;;;;;;4.43;1.75;;;-2.10;99.90;;;;;;4951965;28;20055;-84
2021/12/01 11:36:01;;;;;;;7.28;2.58;;;-1.00;99.90;;;;;;4947836;28;20118;-87
2021/12/01 11:38:29;;;;;;;3.88;1.77;;;-1.80;99.90;;;;;;4956615;28;20423;-86
2021/12/01 11:41:01;;;;;;;3.90;2.30;;;-1.70;99.90;;;;;;4952651;28;20047;-87
2021/12/01 11:43:31;;;;;;;2.92;1.70;;;-2.60;99.90;;;;;;4971572;28;20472;-84
2021/12/01 11:46:00;;;;;;;3.13;1.50;;;-2.10;99.90;;;;;;4953149;28;20094;-86
2021/12/01 11:48:33;;;;;;;4.35;2.10;;;-2.90;99.90;;;;;;4951102;28;20085;-86
2021/12/01 11:51:17;;;;;;;6.00;1.80;;;-2.60;99.90;;;;;;4936499;28;20049;-81
2021/12/01 11:53:48;;;;;;;7.22;2.30;;;-2.80;99.90;;;;;;4951278;28;20047;-82
2021/12/01 11:56:22;;;;;;;4.70;2.17;;;-2.70;99.90;;;;;;4952781;28;20055;-82
2021/12/01 11:58:59;;;;;;;;;;;-2.10;99.90;;;;;;4953594;28;20203;-82
2021/12/01 12:01:48;;;;;;;3.42;1.58;;;-2.20;99.90;;;;;;4967325;28;19950;-81
2021/12/01 12:04:39;;;;;;;3.38;2.30;;;-3.10;99.90;;;;;;4967387;28;20055;-89
2021/12/01 12:07:15;;;;;;;3.45;2.05;;;-3.00;99.90;;;;;;4955080;29;20061;-90
2021/12/01 12:09:43;;;;;;;5.57;2.05;;;-1.90;99.90;;;;;;4952942;28;20078;-87
2021/12/01 12:12:20;;;;;;;8.63;2.00;;;-2.80;99.90;;;;;;4951614;28;20491;-88
2021/12/01 12:14:54;;;;;;;6.07;1.92;;;-3.20;99.90;;;;;;4949540;28;20062;-84
2021/12/01 12:17:34;;;;;;;10.68;3.22;;;-3.10;99.90;;;;;;4950829;29;20485;-86
2021/12/01 12:20:18;;;;;;;4.28;1.90;;;-1.60;99.90;;;;;;4952692;28;20051;-85
2021/12/01 12:23:08;;;;;;;4.95;1.38;;;-3.40;99.90;;;;;;4953289;28;20093;-84
2021/12/01 12:25:47;;;;;;;2.58;1.77;;;-3.30;99.90;;;;;;4952872;28;20051;-85
2021/12/01 12:28:27;;;;;;;2.53;1.33;;;-3.30;99.90;;;;;;4932627;29;20051;-85
2021/12/01 12:30:57;;;;;;;3.72;1.65;;;-3.60;99.90;;;;;;4937855;29;20051;-84
2021/12/01 12:33:28;;;;;;;6.97;1.77;;;-3.40;99.90;;;;;;4935137;29;20039;-83
2021/12/01 12:36:03;;;;;;;2.67;1.60;;;-3.10;99.90;;;;;;4950663;28;20063;-86
2021/12/01 12:38:32;;;;;;;5.88;1.75;;;-3.50;99.90;;;;;;4952148;28;20058;-85
2021/12/01 12:41:13;;;;;;;4.35;1.60;;;-4.00;99.90;;;;;;4952114;28;20047;-85
2021/12/01 12:43:44;;;;;;;3.35;1.65;;;-4.30;99.90;;;;;;4946709;28;20499;-85
2021/12/01 12:46:16;;;;;;;5.18;1.40;;;-2.80;99.90;;;;;;4951726;28;20047;-84
2021/12/01 12:48:48;;;;;;;5.22;1.85;;;-4.60;99.90;;;;;;4952902;28;20065;-84
2021/12/01 12:51:22;;;;;;;5.75;1.77;;;-5.90;99.90;;;;;;4951985;28;20047;-85
2021/12/01 12:54:14;;;;;;;2.58;1.58;;;-2.30;99.90;;;;;;4955553;28;20052;-88
2021/12/01 12:56:54;;;;;;;5.28;1.80;;;-4.20;99.90;;;;;;4959840;28;20126;-89
2021/12/01 12:59:33;;;;;;;5.47;2.22;;;-4.30;99.90;;;;;;4966344;28;20051;-87
2021/12/01 13:02:33;;;;;;;2.72;1.90;;;-3.80;99.90;;;;;;4956387;28;20087;-88
2021/12/01 13:05:07;;;;;;;2.92;2.22;;;-4.50;99.90;;;;;;4936945;29;20085;-80
2021/12/01 13:07:46;;;;;;;5.57;2.03;;;-4.50;99.90;;;;;;4953943;28;20172;-77
2021/12/01 13:10:24;;;;;;;3.08;1.85;;;-4.50;99.90;;;;;;4952483;29;20055;-79
2021/12/01 13:13:02;;;;;;;4.95;2.15;;;-3.80;99.90;;;;;;4954620;28;20077;-80